»·PEaware :: AAL335 KLAS-KJFK

AAL335 :: KLAS-KJFK

FLIGHT INFORMATION

Flight Status: Arrived
Operator:
American Airlines
More flights by this operator :: More flights under this callsign
Pilot: Chris O. (30060)
Aircraft: BOEING 737-800
(B738)
More flights by this aircraft type
Origin: KLAS Harry Reid Intl
United States
Destination: KJFK Kennedy Intl
United States
More flights between these airports :: More routes between these airports
Route: GIDGT1 TUKRR DVC LAA J102 SLN J24 MCI J80 VHP ROD KLYNE Q29 JHW J70 LVZ LENDY6
File this flight plan on PilotEdge
Remarks: RMK / SIMBRIEF
Altitude:
(Current/Filed)
37,000ft
Speed:
(Current/Filed)
471kts
Departed: 19-Aug-22 02:40 PM
Arrived: 19-Aug-22 04:42 PM
Distance/Time
Traveled:
1947nm/2:02
Distance/Time
To Go:
Arrived

Flight Plot

Page will automatically refresh every two minutes.

Flight plan parsing failed; only flown route is shown


Map Options




Map Legend


Flown Route
Filed Route
Departure Airport
Arrival Airport
Navaid (VOR, NDB)
Fix

Horizontal Profiles

Position Reports

Time Latitude Longitude Heading Altitude Ground
Speed
19-Aug-22 14:38 39.816756 -86.398081 87 37039ft 481kts
19-Aug-22 14:39 39.838451 -86.258027 73 37050ft 469kts
19-Aug-22 14:40 39.872002 -86.100588 73 38557ft 469kts
19-Aug-22 14:41 39.909090 -85.926076 73 39069ft 474kts
19-Aug-22 14:42 39.944064 -85.760339 73 39073ft 471kts
19-Aug-22 14:43 39.978309 -85.596861 73 39082ft 476kts
19-Aug-22 14:44 40.012479 -85.432455 73 39081ft 473kts
19-Aug-22 14:45 40.046437 -85.267937 73 39063ft 474kts
19-Aug-22 14:46 40.080343 -85.102423 74 39064ft 475kts
19-Aug-22 14:47 40.113508 -84.939093 74 39064ft 475kts
19-Aug-22 14:48 40.146857 -84.773506 74 39082ft 475kts
19-Aug-22 14:49 40.180009 -84.607552 75 39082ft 475kts
19-Aug-22 14:50 40.212907 -84.441517 75 39082ft 475kts
19-Aug-22 14:51 40.244962 -84.278533 76 39082ft 475kts
19-Aug-22 14:52 40.276560 -84.114280 81 39084ft 469kts
19-Aug-22 14:53 40.333626 -83.962293 53 39099ft 475kts
19-Aug-22 14:54 40.411942 -83.824183 53 39100ft 473kts
19-Aug-22 14:55 40.490209 -83.685679 53 39102ft 477kts
19-Aug-22 14:56 40.568896 -83.545772 53 39099ft 477kts
19-Aug-22 14:57 40.647265 -83.405797 53 39100ft 476kts
19-Aug-22 14:58 40.725714 -83.266742 52 39100ft 477kts
19-Aug-22 14:59 40.806340 -83.129320 52 39098ft 472kts
19-Aug-22 15:00 40.886315 -82.992877 52 39101ft 474kts
19-Aug-22 15:01 40.965149 -82.857909 52 39111ft 474kts
19-Aug-22 15:02 41.044746 -82.721066 52 39107ft 474kts
19-Aug-22 15:03 41.115773 -82.598075 55 39107ft 478kts
19-Aug-22 15:04 41.185707 -82.439693 61 39091ft 475kts
19-Aug-22 15:05 41.249730 -82.283495 62 39091ft 476kts
19-Aug-22 15:06 41.310339 -82.133715 63 39092ft 471kts
19-Aug-22 15:07 41.367741 -81.978793 69 39103ft 472kts
19-Aug-22 15:08 41.417407 -81.820621 68 39100ft 472kts
19-Aug-22 15:09 41.467239 -81.663240 68 39083ft 477kts
19-Aug-22 15:10 41.518012 -81.502840 68 39099ft 475kts
19-Aug-22 15:11 41.568004 -81.344241 69 39100ft 476kts
19-Aug-22 15:12 41.617399 -81.186885 69 39092ft 478kts
19-Aug-22 15:13 41.668025 -81.024526 69 39097ft 480kts
19-Aug-22 15:14 41.718958 -80.860131 69 39109ft 479kts
19-Aug-22 15:15 41.769451 -80.696132 68 39109ft 477kts
19-Aug-22 15:16 41.817865 -80.532430 71 39111ft 474kts
19-Aug-22 15:17 41.861589 -80.366385 71 39102ft 476kts
19-Aug-22 15:18 41.905793 -80.201369 71 39099ft 477kts
19-Aug-22 15:19 41.950720 -80.033713 71 39099ft 481kts
19-Aug-22 15:20 41.995539 -79.865658 71 39100ft 479kts
19-Aug-22 15:21 42.040201 -79.697117 71 39143ft 482kts
19-Aug-22 15:22 42.085072 -79.526610 71 39153ft 485kts
19-Aug-22 15:23 42.128986 -79.358584 71 39156ft 484kts
19-Aug-22 15:24 42.171957 -79.188585 80 39141ft 486kts
19-Aug-22 15:25 42.160103 -79.011969 111 39154ft 476kts
19-Aug-22 15:26 42.119216 -78.843998 112 39155ft 474kts
19-Aug-22 15:27 42.077240 -78.675678 112 39176ft 478kts
19-Aug-22 15:28 42.034648 -78.506757 112 39163ft 478kts
19-Aug-22 15:29 41.992502 -78.340966 113 39174ft 477kts
19-Aug-22 15:30 41.949062 -78.171089 114 39185ft 481kts
19-Aug-22 15:31 41.905335 -78.001485 114 39182ft 481kts
19-Aug-22 15:32 41.861891 -77.834599 114 39183ft 481kts
19-Aug-22 15:33 41.816537 -77.665967 114 39166ft 485kts
19-Aug-22 15:34 41.771267 -77.496114 114 39163ft 485kts
19-Aug-22 15:35 41.726079 -77.327177 116 39165ft 487kts
19-Aug-22 15:36 41.680615 -77.157107 116 39166ft 491kts
19-Aug-22 15:37 41.634179 -76.986014 116 39164ft 490kts
19-Aug-22 15:38 41.587880 -76.815719 116 39083ft 490kts
19-Aug-22 15:39 41.541181 -76.644759 116 39084ft 494kts
19-Aug-22 15:40 41.493634 -76.473281 117 39081ft 493kts
19-Aug-22 15:41 41.446949 -76.305461 117 39111ft 492kts
19-Aug-22 15:42 41.399229 -76.134116 117 39120ft 498kts
19-Aug-22 15:43 41.351085 -75.962322 117 39118ft 496kts
19-Aug-22 15:44 41.303084 -75.792282 117 39119ft 496kts
19-Aug-22 15:45 41.251947 -75.622229 122 39121ft 497kts
19-Aug-22 15:46 41.195130 -75.455205 122 39185ft 498kts
19-Aug-22 15:47 41.140478 -75.293335 123 39182ft 497kts
19-Aug-22 15:48 41.083776 -75.126194 122 39183ft 500kts
19-Aug-22 15:49 41.026867 -74.959306 122 39115ft 500kts
19-Aug-22 15:50 40.987684 -74.782863 105 39123ft 517kts
19-Aug-22 15:51 40.966676 -74.595946 104 39119ft 522kts
19-Aug-22 15:52 40.946135 -74.409955 104 39112ft 520kts
19-Aug-22 15:53 40.926782 -74.234873 104 39108ft 520kts
19-Aug-22 15:54 40.888518 -74.084426 129 39105ft 499kts
19-Aug-22 15:55 40.816402 -73.934807 132 39135ft 493kts
19-Aug-22 15:56 40.736596 -73.791232 143 39120ft 477kts
19-Aug-22 15:57 40.642432 -73.667146 144 39130ft 469kts
19-Aug-22 15:58 40.560492 -73.530412 130 39130ft 490kts
19-Aug-22 15:59 40.509434 -73.361177 107 39137ft 515kts
19-Aug-22 16:00 40.509272 -73.171173 80 39137ft 533kts
19-Aug-22 16:01 40.569927 -72.994456 50 39137ft 535kts
19-Aug-22 16:02 40.681633 -72.873518 17 39155ft 514kts
19-Aug-22 16:03 40.813883 -72.839148 344 39154ft 472kts
19-Aug-22 16:04 40.927793 -72.894278 310 39155ft 418kts
19-Aug-22 16:05 40.987734 -73.012161 275 39136ft 373kts
19-Aug-22 16:06 40.975535 -73.140382 241 39137ft 356kts
19-Aug-22 16:08 40.900408 -73.222343 206 39137ft 378kts
19-Aug-22 16:09 40.791519 -73.219959 171 39137ft 427kts
19-Aug-22 16:10 40.692034 -73.122265 136 39136ft 479kts
19-Aug-22 16:11 40.642099 -72.953993 101 39137ft 520kts
19-Aug-22 16:12 40.663179 -72.764662 67 39155ft 537kts
19-Aug-22 16:13 40.752127 -72.611091 32 39164ft 526kts
19-Aug-22 16:14 40.880628 -72.538580 356 39164ft 491kts
19-Aug-22 16:15 41.006341 -72.562244 322 39164ft 438kts
19-Aug-22 16:16 41.088194 -72.663426 287 39162ft 386kts
19-Aug-22 16:17 41.101751 -72.792777 254 37864ft 363kts
19-Aug-22 16:18 41.051476 -72.908020 228 32897ft 383kts
19-Aug-22 16:19 40.960273 -72.975143 203 29003ft 395kts
19-Aug-22 16:20 40.851140 -72.989588 181 24590ft 416kts
19-Aug-22 16:21 40.738640 -72.957857 160 20099ft 421kts
19-Aug-22 16:22 40.646163 -72.869350 131 15581ft 412kts
19-Aug-22 16:23 40.618559 -72.734749 73 11998ft 377kts
19-Aug-22 16:24 40.687214 -72.667968 337 10146ft 313kts
19-Aug-22 16:25 40.725454 -72.754905 286 9513ft 269kts
19-Aug-22 16:26 40.746268 -72.847758 286 8368ft 264kts
19-Aug-22 16:27 40.766925 -72.938634 286 7368ft 259kts
19-Aug-22 16:28 40.787521 -73.027951 286 6396ft 263kts
19-Aug-22 16:29 40.807822 -73.115374 286 5435ft 259kts
19-Aug-22 16:30 40.828550 -73.204001 286 4452ft 256kts
19-Aug-22 16:30 40.846047 -73.277188 286 3627ft 251kts
19-Aug-22 16:32 40.869283 -73.376373 275 3004ft 244kts
19-Aug-22 16:33 40.859508 -73.463095 257 3009ft 242kts
19-Aug-22 16:34 40.843455 -73.547875 244 2990ft 231kts
19-Aug-22 16:35 40.815839 -73.606091 237 3025ft 177kts
19-Aug-22 16:35 40.789062 -73.640973 215 2990ft 173kts
19-Aug-22 16:36 40.760814 -73.664201 211 2632ft 167kts
19-Aug-22 16:38 40.726010 -73.691599 210 1888ft 153kts
19-Aug-22 16:39 40.698735 -73.712986 209 1262ft 140kts
19-Aug-22 16:39 40.678116 -73.729146 208 792ft 131kts
19-Aug-22 16:40 40.652154 -73.749458 207 214ft 132kts
19-Aug-22 16:41 40.634339 -73.763312 213 16ft 2kts
19-Aug-22 16:42 40.633007 -73.768618 301 13ft 17kts
19-Aug-22 16:43 40.636345 -73.775869 308 16ft 27kts
19-Aug-22 16:44 40.637570 -73.779101 353 16ft 23kts
19-Aug-22 16:45 40.637813 -73.780381 264 16ft 0kts
19-Aug-22 16:46 40.637813 -73.780381 264 16ft 0kts
19-Aug-22 16:47 40.637813 -73.780381 264 16ft 0kts

Navigation Log

Ident Type
Flight plan parsing failed, navigation log unavailable